Time;durP1;ratioP1;P1;durP2;ratioP2;P2;SDS_P1;SDS_P2;PMS_P1;PMS_P2;Temp;Humidity;BMP_temperature;BMP_pressure;BME280_temperature;BME280_humidity;BME280_pressure;Samples;Min_cycle;Max_cycle;Signal;HPM_P1;HPM_P2
2024/01/05 00:01:44;;;;;;;8.07;3.90;;;9.70;99.90;;;;;;969804;144;27370;-80
2024/01/05 00:04:11;;;;;;;6.63;2.97;;;9.70;99.90;;;;;;969732;144;27269;-80
2024/01/05 00:06:37;;;;;;;6.83;3.27;;;9.70;99.90;;;;;;970930;144;27348;-82
2024/01/05 00:09:04;;;;;;;10.00;3.70;;;9.70;99.90;;;;;;968316;144;27366;-82
2024/01/05 00:11:31;;;;;;;5.47;3.13;;;9.70;99.90;;;;;;966131;144;27248;-79
2024/01/05 00:13:57;;;;;;;7.53;3.23;;;9.70;99.90;;;;;;970023;144;27341;-81
2024/01/05 00:16:24;;;;;;;7.07;2.93;;;9.80;99.90;;;;;;970571;144;27290;-83
2024/01/05 00:18:50;;;;;;;5.97;2.93;;;9.80;99.90;;;;;;964855;144;27874;-79
2024/01/05 00:21:23;;;;;;;7.80;3.00;;;9.80;99.90;;;;;;965034;146;27291;-78
2024/01/05 00:23:50;;;;;;;4.13;2.77;;;9.80;99.90;;;;;;964669;144;27860;-79
2024/01/05 00:26:16;;;;;;;6.87;3.20;;;9.90;99.90;;;;;;965194;146;27299;-81
2024/01/05 00:28:42;;;;;;;6.70;2.90;;;9.90;99.90;;;;;;966038;145;27405;-78
2024/01/05 00:31:12;;;;;;;7.97;3.00;;;9.90;99.90;;;;;;965032;145;27205;-88
2024/01/05 00:33:38;;;;;;;5.07;2.37;;;9.90;99.90;;;;;;966373;145;27261;-80
2024/01/05 00:36:05;;;;;;;7.37;3.23;;;9.90;99.90;;;;;;964224;146;27400;-79
2024/01/05 00:38:31;;;;;;;7.77;2.87;;;9.90;99.90;;;;;;964948;146;27373;-79
2024/01/05 00:40:58;;;;;;;5.20;2.83;;;9.90;99.90;;;;;;965881;146;27248;-79
2024/01/05 00:43:25;;;;;;;6.63;3.37;;;9.90;99.90;;;;;;965572;145;27267;-78
2024/01/05 00:45:51;;;;;;;7.60;2.80;;;9.90;99.90;;;;;;965526;143;27305;-83
2024/01/05 00:48:18;;;;;;;6.80;2.60;;;9.90;99.90;;;;;;929411;151;27510;-78
2024/01/05 00:50:44;;;;;;;7.97;2.53;;;9.90;99.90;;;;;;928661;150;27310;-81
2024/01/05 00:53:11;;;;;;;6.07;2.90;;;9.90;99.90;;;;;;963981;143;27465;-78
2024/01/05 00:55:37;;;;;;;5.50;2.83;;;9.90;99.90;;;;;;965657;145;27266;-80
2024/01/05 00:58:04;;;;;;;5.63;2.67;;;9.80;99.90;;;;;;965408;146;27305;-78
2024/01/05 01:00:31;;;;;;;5.73;2.40;;;9.80;99.90;;;;;;967048;145;27358;-78
2024/01/05 01:02:57;;;;;;;4.77;2.50;;;9.90;99.90;;;;;;964812;145;27342;-79
2024/01/05 01:05:24;;;;;;;6.87;2.80;;;9.90;99.90;;;;;;965668;145;27732;-79
2024/01/05 01:07:50;;;;;;;5.37;2.37;;;9.80;99.90;;;;;;965295;145;27383;-82
2024/01/05 01:10:17;;;;;;;4.57;2.43;;;9.80;99.90;;;;;;964683;145;27327;-78
2024/01/05 01:12:44;;;;;;;4.37;2.57;;;9.80;99.90;;;;;;964391;146;27246;-78
2024/01/05 01:15:10;;;;;;;5.17;2.23;;;9.80;99.90;;;;;;964286;145;27272;-79
2024/01/05 01:17:37;;;;;;;4.77;2.13;;;9.80;99.90;;;;;;964924;143;27276;-81
2024/01/05 01:20:03;;;;;;;4.40;2.53;;;9.80;99.90;;;;;;967893;143;27337;-79
2024/01/05 01:22:30;;;;;;;3.67;2.30;;;9.80;99.90;;;;;;972960;143;27315;-78
2024/01/05 01:24:56;;;;;;;6.17;2.20;;;9.70;99.90;;;;;;968922;143;27289;-78
2024/01/05 01:27:23;;;;;;;4.57;2.40;;;9.70;99.90;;;;;;976722;142;27253;-80
2024/01/05 01:29:50;;;;;;;7.50;2.23;;;9.70;99.90;;;;;;973577;143;27322;-78
2024/01/05 01:32:16;;;;;;;5.57;2.27;;;9.70;99.90;;;;;;967745;144;27929;-79
2024/01/05 01:34:43;;;;;;;5.07;2.57;;;9.70;99.90;;;;;;969576;144;27403;-79
2024/01/05 01:37:09;;;;;;;5.60;3.03;;;9.60;99.90;;;;;;971006;144;27311;-79
2024/01/05 01:39:36;;;;;;;2.70;1.93;;;9.60;99.90;;;;;;971528;143;27246;-82
2024/01/05 01:42:03;;;;;;;4.80;2.40;;;9.60;99.90;;;;;;971264;144;27459;-88
2024/01/05 01:44:29;;;;;;;4.53;2.17;;;9.60;99.90;;;;;;972977;144;27237;-87
2024/01/05 01:46:56;;;;;;;6.63;2.13;;;9.60;99.90;;;;;;975985;144;27236;-88
2024/01/05 01:49:23;;;;;;;8.13;2.90;;;9.50;99.90;;;;;;973182;144;27260;-86
2024/01/05 01:51:49;;;;;;;5.97;2.60;;;9.50;99.90;;;;;;971542;144;27337;-88
2024/01/05 01:54:15;;;;;;;3.60;2.23;;;9.50;99.90;;;;;;971914;144;27250;-88
2024/01/05 01:56:42;;;;;;;5.33;2.63;;;9.50;99.90;;;;;;974173;144;27279;-89
2024/01/05 01:59:09;;;;;;;5.90;2.03;;;9.50;99.90;;;;;;974371;144;27328;-87
2024/01/05 02:01:35;;;;;;;5.07;2.00;;;9.40;99.90;;;;;;970093;144;27434;-88
2024/01/05 02:04:03;;;;;;;5.90;2.53;;;9.40;99.90;;;;;;972779;144;27260;-89
2024/01/05 02:06:28;;;;;;;3.13;2.07;;;9.50;99.90;;;;;;971388;144;27273;-87
2024/01/05 02:08:55;;;;;;;5.77;2.03;;;9.40;99.90;;;;;;972712;144;27306;-87
2024/01/05 02:11:22;;;;;;;5.50;2.73;;;9.40;99.90;;;;;;973262;144;27326;-83
2024/01/05 02:13:48;;;;;;;5.60;2.27;;;9.40;99.90;;;;;;975609;144;27390;-90
2024/01/05 02:16:15;;;;;;;3.77;1.87;;;9.40;99.90;;;;;;970926;144;27279;-87
2024/01/05 02:18:41;;;;;;;3.90;2.20;;;9.40;99.90;;;;;;937244;151;27374;-88
2024/01/05 02:21:08;;;;;;;3.93;2.17;;;9.40;99.90;;;;;;970748;144;27386;-82
2024/01/05 02:23:35;;;;;;;4.70;2.33;;;9.40;99.90;;;;;;972306;144;27398;-85
2024/01/05 02:26:01;;;;;;;6.93;2.23;;;9.40;99.90;;;;;;971541;144;27254;-89
2024/01/05 02:28:28;;;;;;;3.70;2.23;;;9.40;99.90;;;;;;974541;144;27313;-86
2024/01/05 02:30:55;;;;;;;4.47;2.37;;;9.40;99.90;;;;;;973156;144;27421;-85
2024/01/05 02:33:21;;;;;;;4.27;2.00;;;9.40;99.90;;;;;;974227;144;27340;-89
2024/01/05 02:35:47;;;;;;;2.80;2.27;;;9.40;99.90;;;;;;972633;144;27299;-89
2024/01/05 02:38:14;;;;;;;4.70;2.73;;;9.40;99.90;;;;;;972071;144;27338;-88
2024/01/05 02:40:41;;;;;;;4.30;1.87;;;9.40;99.90;;;;;;970621;144;27275;-86
2024/01/05 02:43:07;;;;;;;6.20;2.03;;;9.30;99.90;;;;;;972591;144;27407;-88
2024/01/05 02:45:34;;;;;;;3.83;2.10;;;9.40;99.90;;;;;;970404;144;27325;-88
2024/01/05 02:48:01;;;;;;;4.23;2.03;;;9.30;99.90;;;;;;974336;144;27344;-89
2024/01/05 02:50:27;;;;;;;4.20;2.20;;;9.30;99.90;;;;;;970700;144;27268;-89
2024/01/05 02:52:53;;;;;;;3.87;1.73;;;9.30;99.90;;;;;;973675;144;27276;-84
2024/01/05 02:55:20;;;;;;;4.20;2.20;;;9.30;99.90;;;;;;973406;144;27318;-88
2024/01/05 02:57:47;;;;;;;5.93;2.47;;;9.30;99.90;;;;;;974801;144;27250;-89
2024/01/05 03:00:13;;;;;;;7.77;2.60;;;9.30;99.90;;;;;;974744;144;27333;-88
2024/01/05 03:02:40;;;;;;;6.63;2.57;;;9.30;99.90;;;;;;972132;144;27274;-85
2024/01/05 03:05:06;;;;;;;4.57;2.33;;;9.30;99.90;;;;;;972064;144;27398;-88
2024/01/05 03:07:33;;;;;;;4.73;2.63;;;9.30;99.90;;;;;;970457;144;28742;-86
2024/01/05 03:10:00;;;;;;;5.97;2.20;;;9.30;99.90;;;;;;972516;144;27392;-88
2024/01/05 03:12:26;;;;;;;4.70;2.17;;;9.30;99.90;;;;;;975414;144;27353;-86
2024/01/05 03:14:53;;;;;;;3.40;2.00;;;9.30;99.90;;;;;;972877;144;27392;-87
2024/01/05 03:17:19;;;;;;;4.00;2.23;;;9.40;99.90;;;;;;973490;144;27313;-88
2024/01/05 03:19:46;;;;;;;4.33;2.30;;;9.40;99.90;;;;;;973737;142;27433;-88
2024/01/05 03:22:13;;;;;;;2.33;1.77;;;9.40;99.90;;;;;;991056;142;27264;-88
2024/01/05 03:24:40;;;;;;;7.27;2.37;;;9.40;99.90;;;;;;972686;143;27693;-81
2024/01/05 03:27:06;;;;;;;4.03;2.10;;;9.40;99.90;;;;;;974841;144;27321;-88
2024/01/05 03:29:32;;;;;;;4.53;2.07;;;9.40;99.90;;;;;;970227;144;27339;-88
2024/01/05 03:31:59;;;;;;;3.20;1.90;;;9.40;99.90;;;;;;970644;144;27361;-88
2024/01/05 03:34:25;;;;;;;5.17;2.30;;;9.40;99.90;;;;;;972622;144;27336;-88
2024/01/05 03:36:52;;;;;;;2.70;2.20;;;9.40;99.90;;;;;;971560;144;27333;-89
2024/01/05 03:39:19;;;;;;;6.87;2.30;;;9.40;99.90;;;;;;974769;144;27453;-89
2024/01/05 03:41:45;;;;;;;6.13;2.60;;;9.40;99.90;;;;;;970668;144;27260;-88
2024/01/05 03:44:13;;;;;;;2.83;2.23;;;9.40;99.90;;;;;;973840;144;27328;-87
2024/01/05 03:46:38;;;;;;;4.77;2.50;;;9.40;99.90;;;;;;972977;144;27319;-82
2024/01/05 03:49:05;;;;;;;5.77;2.43;;;9.30;99.90;;;;;;973161;144;27381;-89
2024/01/05 03:51:32;;;;;;;3.60;1.90;;;9.30;99.90;;;;;;971769;144;27357;-89
2024/01/05 03:53:58;;;;;;;3.80;2.07;;;9.30;99.90;;;;;;972378;144;27310;-79
2024/01/05 03:56:25;;;;;;;5.33;2.47;;;9.30;99.90;;;;;;974075;144;27347;-80
2024/01/05 03:58:51;;;;;;;3.43;2.00;;;9.30;99.90;;;;;;970303;144;27418;-78
2024/01/05 04:01:18;;;;;;;5.47;2.07;;;9.30;99.90;;;;;;969897;144;27257;-79
2024/01/05 04:03:44;;;;;;;4.17;2.50;;;9.30;99.90;;;;;;972232;144;27314;-79
2024/01/05 04:06:11;;;;;;;3.20;2.20;;;9.20;99.90;;;;;;971867;144;27227;-79
2024/01/05 04:08:38;;;;;;;5.07;2.40;;;9.20;99.90;;;;;;968151;144;27358;-82
2024/01/05 04:11:04;;;;;;;3.53;2.40;;;9.20;99.90;;;;;;975559;144;27294;-78
2024/01/05 04:13:31;;;;;;;5.43;1.90;;;9.20;99.90;;;;;;970433;144;27356;-79
2024/01/05 04:15:57;;;;;;;4.13;2.20;;;9.20;99.90;;;;;;972157;144;27720;-79
2024/01/05 04:18:24;;;;;;;2.40;2.20;;;9.20;99.90;;;;;;973155;144;27349;-82
2024/01/05 04:20:51;;;;;;;4.33;1.90;;;9.20;99.90;;;;;;924944;150;27480;-80
2024/01/05 04:23:17;;;;;;;3.17;2.27;;;9.20;99.90;;;;;;922180;153;27284;-78
2024/01/05 04:25:44;;;;;;;4.37;2.00;;;9.20;99.90;;;;;;920551;153;27462;-79
2024/01/05 04:28:10;;;;;;;4.10;2.33;;;9.20;99.90;;;;;;922268;153;27332;-82
2024/01/05 04:30:37;;;;;;;4.17;1.77;;;9.30;99.90;;;;;;919385;153;27407;-79
2024/01/05 04:33:03;;;;;;;3.20;2.20;;;9.40;99.90;;;;;;920079;156;27295;-78
2024/01/05 04:35:30;;;;;;;3.20;2.40;;;9.40;99.90;;;;;;938881;152;27293;-81
2024/01/05 04:37:57;;;;;;;4.10;2.00;;;9.40;99.90;;;;;;938390;149;27373;-78
2024/01/05 04:40:23;;;;;;;5.27;1.80;;;9.40;99.90;;;;;;938996;152;27415;-83
2024/01/05 04:42:50;;;;;;;3.90;2.30;;;9.50;99.90;;;;;;937841;149;28574;-78
2024/01/05 04:45:16;;;;;;;4.30;2.40;;;9.50;99.90;;;;;;938477;149;27363;-79
2024/01/05 04:47:46;;;;;;;3.40;2.47;;;9.50;99.90;;;;;;939425;152;27281;-79
2024/01/05 04:50:10;;;;;;;6.60;2.47;;;9.60;99.90;;;;;;938415;152;27275;-82
2024/01/05 04:52:36;;;;;;;6.07;2.20;;;9.60;99.90;;;;;;939167;152;27329;-79
2024/01/05 04:55:04;;;;;;;4.90;2.33;;;9.60;99.90;;;;;;938657;152;27318;-79
2024/01/05 04:57:29;;;;;;;6.57;2.33;;;9.60;99.90;;;;;;939129;149;27289;-78
2024/01/05 04:59:56;;;;;;;4.67;2.50;;;9.70;99.90;;;;;;938292;149;27371;-81
2024/01/05 05:02:23;;;;;;;5.00;2.10;;;9.70;99.90;;;;;;939125;149;27320;-78
2024/01/05 05:04:49;;;;;;;4.53;2.27;;;9.70;99.90;;;;;;938516;150;27348;-88
2024/01/05 05:07:16;;;;;;;6.00;2.27;;;9.70;99.90;;;;;;939047;149;27285;-89
2024/01/05 05:09:42;;;;;;;4.57;2.47;;;9.70;99.90;;;;;;939013;149;27289;-84
2024/01/05 05:12:09;;;;;;;3.70;2.13;;;9.80;99.90;;;;;;937407;149;27442;-87
2024/01/05 05:14:35;;;;;;;6.10;2.17;;;9.70;99.90;;;;;;938697;149;27321;-88
2024/01/05 05:17:02;;;;;;;6.40;2.47;;;9.70;99.90;;;;;;938291;150;27250;-88
2024/01/05 05:19:29;;;;;;;4.93;2.80;;;9.80;99.90;;;;;;938338;150;27298;-88
2024/01/05 05:21:55;;;;;;;4.73;2.40;;;9.80;99.90;;;;;;942304;148;27348;-86
2024/01/05 05:24:22;;;;;;;4.43;2.17;;;9.80;99.90;;;;;;930678;149;27361;-87
2024/01/05 05:26:48;;;;;;;3.03;2.13;;;9.80;99.90;;;;;;947846;146;27342;-86
2024/01/05 05:29:15;;;;;;;3.63;2.57;;;9.80;99.90;;;;;;932494;149;27478;-88
2024/01/05 05:31:41;;;;;;;4.73;2.17;;;9.80;99.90;;;;;;929809;148;27272;-86
2024/01/05 05:34:08;;;;;;;5.53;3.30;;;9.80;99.90;;;;;;942156;149;27364;-89
2024/01/05 05:36:35;;;;;;;4.83;2.10;;;9.80;99.90;;;;;;931103;151;27372;-88
2024/01/05 05:39:01;;;;;;;3.10;2.10;;;9.80;99.90;;;;;;920006;151;27324;-88
2024/01/05 05:41:28;;;;;;;3.50;2.20;;;9.90;99.90;;;;;;941182;148;27362;-88
2024/01/05 05:43:54;;;;;;;2.03;1.70;;;9.90;99.90;;;;;;930905;148;27491;-83
2024/01/05 05:46:21;;;;;;;6.07;2.43;;;9.90;99.90;;;;;;937191;148;27451;-88
2024/01/05 05:48:48;;;;;;;5.33;2.37;;;9.90;99.90;;;;;;934690;148;27291;-87
2024/01/05 05:51:14;;;;;;;3.83;2.40;;;9.90;99.90;;;;;;934772;148;27300;-86
2024/01/05 05:53:41;;;;;;;3.47;1.97;;;9.90;99.90;;;;;;927586;148;27729;-87
2024/01/05 05:56:07;;;;;;;3.57;1.97;;;9.90;99.90;;;;;;939635;148;27390;-88
2024/01/05 05:58:34;;;;;;;5.97;2.60;;;9.90;99.90;;;;;;942836;148;28343;-88
2024/01/05 06:01:00;;;;;;;4.33;2.00;;;9.90;99.90;;;;;;933966;149;27393;-82
2024/01/05 06:03:27;;;;;;;4.73;2.10;;;9.90;99.90;;;;;;939505;149;27291;-88
2024/01/05 06:05:54;;;;;;;6.30;2.23;;;9.90;99.90;;;;;;937146;147;27456;-87
2024/01/05 06:08:20;;;;;;;5.13;2.07;;;9.90;99.90;;;;;;938873;148;27367;-88
2024/01/05 06:10:47;;;;;;;2.80;1.77;;;10.00;99.90;;;;;;936993;148;27272;-88
2024/01/05 06:13:13;;;;;;;3.30;1.77;;;9.90;99.90;;;;;;931567;148;27299;-88
2024/01/05 06:15:41;;;;;;;4.07;2.00;;;9.90;99.90;;;;;;938197;149;27301;-86
2024/01/05 06:18:07;;;;;;;4.30;2.07;;;9.90;99.90;;;;;;938468;149;27369;-89
2024/01/05 06:20:33;;;;;;;4.23;2.10;;;9.90;99.90;;;;;;936845;149;27333;-88
2024/01/05 06:23:00;;;;;;;3.83;1.90;;;9.90;99.90;;;;;;941396;148;27368;-87
2024/01/05 06:25:26;;;;;;;3.90;2.10;;;9.90;99.90;;;;;;926800;150;27292;-87
2024/01/05 06:27:53;;;;;;;3.40;2.00;;;10.00;99.90;;;;;;947290;148;27358;-83
2024/01/05 06:30:19;;;;;;;4.10;2.03;;;10.00;99.90;;;;;;944844;149;27345;-87
2024/01/05 06:32:46;;;;;;;4.03;1.93;;;10.00;99.90;;;;;;971867;144;27294;-87
2024/01/05 06:35:13;;;;;;;3.77;2.37;;;10.00;99.90;;;;;;968433;144;27353;-88
2024/01/05 06:37:39;;;;;;;3.20;2.10;;;10.00;99.90;;;;;;969392;143;27361;-83
2024/01/05 06:40:06;;;;;;;6.20;1.80;;;10.10;99.90;;;;;;971302;144;27404;-88
2024/01/05 06:42:33;;;;;;;3.13;2.00;;;10.10;99.90;;;;;;969867;144;27264;-88
2024/01/05 06:44:59;;;;;;;3.17;1.90;;;10.10;99.90;;;;;;967473;144;27266;-88
2024/01/05 06:47:27;;;;;;;3.87;2.17;;;10.20;99.90;;;;;;972317;144;27573;-87
2024/01/05 06:49:52;;;;;;;2.63;1.70;;;10.10;99.90;;;;;;966023;144;27304;-84
2024/01/05 06:52:19;;;;;;;3.70;1.73;;;10.20;99.90;;;;;;967616;144;27259;-88
2024/01/05 06:54:45;;;;;;;2.67;1.67;;;10.20;99.90;;;;;;969421;144;27237;-88
2024/01/05 06:57:12;;;;;;;3.67;1.80;;;10.20;99.90;;;;;;932265;149;27351;-88
2024/01/05 06:59:39;;;;;;;2.17;1.83;;;10.30;99.90;;;;;;939819;149;27397;-83
2024/01/05 07:02:05;;;;;;;2.80;1.80;;;10.30;99.90;;;;;;939816;149;27332;-87
2024/01/05 07:04:32;;;;;;;4.50;2.00;;;10.30;99.90;;;;;;968088;144;27338;-89
2024/01/05 07:06:58;;;;;;;3.53;1.80;;;10.30;99.90;;;;;;971128;144;27252;-88
2024/01/05 07:09:25;;;;;;;2.33;2.10;;;10.30;99.90;;;;;;966098;144;27308;-83
2024/01/05 07:11:52;;;;;;;4.07;2.13;;;10.30;99.90;;;;;;969624;144;27326;-88
2024/01/05 07:14:18;;;;;;;8.13;2.33;;;10.30;99.90;;;;;;966936;144;27359;-88
2024/01/05 07:16:45;;;;;;;3.80;1.80;;;10.30;99.90;;;;;;970568;144;27348;-88
2024/01/05 07:19:11;;;;;;;2.77;1.80;;;10.30;99.90;;;;;;967284;144;27270;-86
2024/01/05 07:21:41;;;;;;;4.27;2.20;;;10.30;99.90;;;;;;969558;144;27413;-88
2024/01/05 07:24:08;;;;;;;3.43;2.00;;;10.30;99.90;;;;;;970302;144;27385;-88
2024/01/05 07:26:34;;;;;;;2.33;1.83;;;10.30;99.90;;;;;;969871;144;27304;-79
2024/01/05 07:29:01;;;;;;;5.23;2.00;;;10.30;99.90;;;;;;971008;144;27207;-79
2024/01/05 07:31:27;;;;;;;3.53;1.80;;;10.30;99.90;;;;;;970278;143;27326;-82
2024/01/05 07:33:54;;;;;;;3.77;2.27;;;10.30;99.90;;;;;;974913;143;27323;-78
2024/01/05 07:36:20;;;;;;;3.20;1.80;;;10.30;99.90;;;;;;972987;143;27279;-79
2024/01/05 07:38:47;;;;;;;4.63;2.13;;;10.30;99.90;;;;;;973078;143;27195;-79
2024/01/05 07:41:16;;;;;;;2.90;1.70;;;10.30;99.90;;;;;;973865;143;27270;-81
2024/01/05 07:43:43;;;;;;;2.27;1.73;;;10.30;99.90;;;;;;970229;144;27354;-79
2024/01/05 07:46:10;;;;;;;3.30;1.73;;;10.30;99.90;;;;;;972356;144;27299;-79
2024/01/05 07:48:39;;;;;;;1.90;1.70;;;10.30;99.90;;;;;;971302;144;27302;-79
2024/01/05 07:51:05;;;;;;;2.67;1.80;;;10.30;99.90;;;;;;970206;143;27288;-82
2024/01/05 07:53:32;;;;;;;2.73;1.57;;;10.30;99.90;;;;;;974052;144;27731;-79
2024/01/05 07:56:05;;;;;;;6.77;2.33;;;10.40;99.90;;;;;;972922;144;27324;-78
2024/01/05 07:58:31;;;;;;;4.80;1.90;;;10.40;99.90;;;;;;975537;144;27283;-79
2024/01/05 08:00:58;;;;;;;3.50;1.93;;;10.40;99.90;;;;;;970606;144;27263;-81
2024/01/05 08:03:25;;;;;;;3.17;1.80;;;10.40;99.90;;;;;;970847;144;27337;-78
2024/01/05 08:05:51;;;;;;;3.37;1.70;;;10.50;99.90;;;;;;971956;144;27285;-80
2024/01/05 08:08:18;;;;;;;4.60;2.07;;;10.50;99.90;;;;;;971193;144;27345;-78
2024/01/05 08:10:44;;;;;;;4.00;2.10;;;10.50;99.90;;;;;;975624;144;27267;-79
2024/01/05 08:13:11;;;;;;;3.77;2.20;;;10.50;99.90;;;;;;971676;144;27296;-79
2024/01/05 08:15:38;;;;;;;4.93;2.30;;;10.50;99.90;;;;;;954869;147;27353;-79
2024/01/05 08:18:04;;;;;;;5.43;2.00;;;10.60;99.90;;;;;;955373;147;27295;-80
2024/01/05 08:20:31;;;;;;;5.50;2.37;;;10.60;99.90;;;;;;974337;144;27343;-79
2024/01/05 08:22:57;;;;;;;2.73;2.07;;;10.60;99.90;;;;;;974756;143;27327;-82
2024/01/05 08:25:24;;;;;;;5.43;2.07;;;10.60;99.90;;;;;;977167;142;27409;-79
2024/01/05 08:27:50;;;;;;;1.90;1.70;;;10.60;99.90;;;;;;975893;143;27314;-79
2024/01/05 08:30:18;;;;;;;3.47;2.43;;;10.60;99.90;;;;;;976861;143;27300;-79
2024/01/05 08:32:44;;;;;;;3.97;2.20;;;10.60;99.90;;;;;;976369;143;27307;-79
2024/01/05 08:35:10;;;;;;;2.97;2.10;;;10.70;99.90;;;;;;939615;149;27448;-86
2024/01/05 08:37:37;;;;;;;2.53;1.90;;;10.70;99.90;;;;;;975425;143;27822;-88
2024/01/05 08:40:03;;;;;;;6.10;1.83;;;10.80;99.90;;;;;;977378;143;27241;-88
2024/01/05 08:42:30;;;;;;;3.53;2.27;;;10.90;99.90;;;;;;974628;143;27224;-86
2024/01/05 08:44:57;;;;;;;2.20;1.70;;;11.00;99.90;;;;;;968815;143;27270;-84
2024/01/05 08:47:23;;;;;;;4.17;1.80;;;11.10;99.90;;;;;;968326;143;27322;-86
2024/01/05 08:49:50;;;;;;;2.87;2.07;;;11.30;99.90;;;;;;969964;143;27263;-87
2024/01/05 08:52:16;;;;;;;6.17;2.33;;;11.40;99.90;;;;;;968689;144;27369;-87
2024/01/05 08:54:43;;;;;;;4.33;2.00;;;11.50;99.90;;;;;;968739;144;27348;-81
2024/01/05 08:57:11;;;;;;;3.17;2.00;;;11.60;99.90;;;;;;967150;144;27321;-79
2024/01/05 08:59:38;;;;;;;4.93;2.63;;;11.70;99.90;;;;;;918751;155;27470;-78
2024/01/05 09:02:03;;;;;;;4.57;2.50;;;11.70;99.90;;;;;;946314;148;27884;-77
2024/01/05 09:04:31;;;;;;;4.53;1.97;;;11.80;99.90;;;;;;946626;147;27300;-78
2024/01/05 09:06:56;;;;;;;3.97;2.27;;;11.80;99.90;;;;;;942961;149;27344;-82
2024/01/05 09:09:22;;;;;;;3.17;1.80;;;11.70;99.90;;;;;;965457;144;27402;-79
2024/01/05 09:11:49;;;;;;;2.80;1.70;;;11.70;99.90;;;;;;969228;144;27411;-78
2024/01/05 09:14:16;;;;;;;4.50;2.00;;;11.70;99.90;;;;;;970423;144;27301;-78
2024/01/05 09:16:42;;;;;;;3.13;1.87;;;11.70;99.90;;;;;;965231;143;27343;-81
2024/01/05 09:19:09;;;;;;;2.80;1.90;;;11.70;99.90;;;;;;964433;144;27306;-78
2024/01/05 09:21:35;;;;;;;3.03;1.80;;;11.70;99.90;;;;;;967109;144;27364;-78
2024/01/05 09:24:02;;;;;;;2.07;1.53;;;11.70;99.90;;;;;;964478;143;27390;-79
2024/01/05 09:26:29;;;;;;;3.17;1.60;;;11.80;99.90;;;;;;955592;146;27272;-78
2024/01/05 09:28:55;;;;;;;2.37;2.00;;;11.80;99.90;;;;;;953047;146;27784;-78
2024/01/05 09:31:22;;;;;;;3.37;2.07;;;11.80;99.90;;;;;;952533;146;27384;-78
2024/01/05 09:33:49;;;;;;;3.35;1.77;;;11.90;99.90;;;;;;954636;147;27382;-78
2024/01/05 09:36:15;;;;;;;2.77;1.80;;;11.90;99.90;;;;;;954927;147;27265;-79
2024/01/05 09:38:42;;;;;;;1.92;1.72;;;11.90;99.90;;;;;;956525;146;27332;-78
2024/01/05 09:41:13;;;;;;;3.07;1.97;;;12.00;99.90;;;;;;953953;146;28053;-78
2024/01/05 09:43:40;;;;;;;2.03;1.80;;;12.10;99.90;;;;;;951212;146;27269;-78
2024/01/05 09:46:07;;;;;;;2.40;1.70;;;12.20;99.90;;;;;;947493;146;27339;-82
2024/01/05 09:48:33;;;;;;;3.92;2.00;;;12.30;99.90;;;;;;956459;147;27411;-78
2024/01/05 09:51:00;;;;;;;4.70;1.60;;;12.40;99.90;;;;;;954960;147;27396;-79
2024/01/05 09:53:26;;;;;;;3.27;1.87;;;12.60;99.90;;;;;;957580;147;27375;-78
2024/01/05 09:55:53;;;;;;;2.50;2.05;;;12.70;99.90;;;;;;961162;145;27663;-81
2024/01/05 09:58:20;;;;;;;3.67;1.87;;;12.80;99.90;;;;;;951997;146;27373;-78
2024/01/05 10:00:49;;;;;;;3.08;1.70;;;12.90;99.50;;;;;;950818;146;27432;-78
2024/01/05 10:03:18;;;;;;;2.67;1.30;;;13.10;98.80;;;;;;954930;147;27333;-79
2024/01/05 10:05:44;;;;;;;3.12;1.35;;;13.10;98.10;;;;;;955333;146;27346;-86
2024/01/05 10:08:11;;;;;;;2.35;1.45;;;13.20;97.50;;;;;;952724;146;27966;-86
2024/01/05 10:10:52;;;;;;;3.42;1.50;;;13.20;97.10;;;;;;955002;147;27290;-87
2024/01/05 10:13:17;;;;;;;3.47;1.40;;;13.30;96.50;;;;;;955580;146;27334;-86
2024/01/05 10:15:54;;;;;;;4.42;1.35;;;13.30;96.30;;;;;;955146;146;27319;-81
2024/01/05 10:18:21;;;;;;;2.02;1.40;;;13.40;96.30;;;;;;953594;146;27339;-86
2024/01/05 10:20:48;;;;;;;3.00;1.50;;;13.40;95.90;;;;;;956029;146;27268;-86
2024/01/05 10:23:15;;;;;;;2.85;2.10;;;13.50;95.90;;;;;;951798;146;27402;-84
2024/01/05 10:25:41;;;;;;;3.83;2.12;;;13.50;95.80;;;;;;963592;144;27363;-84
2024/01/05 10:28:21;;;;;;;2.98;1.70;;;13.60;95.30;;;;;;972622;144;27291;-86
2024/01/05 10:30:46;;;;;;;5.22;2.77;;;13.70;94.80;;;;;;967349;144;27379;-86
2024/01/05 10:33:13;;;;;;;1.82;1.55;;;13.70;94.30;;;;;;967732;144;27234;-86
2024/01/05 10:35:40;;;;;;;2.75;1.47;;;13.70;93.90;;;;;;971777;144;27419;-85
2024/01/05 10:38:09;;;;;;;2.90;1.55;;;13.70;93.50;;;;;;968370;143;27323;-81
2024/01/05 10:40:35;;;;;;;1.98;1.30;;;13.70;92.90;;;;;;968740;144;27332;-84
2024/01/05 10:43:11;;;;;;;3.40;1.90;;;13.70;92.70;;;;;;968440;144;27287;-84
2024/01/05 10:45:37;;;;;;;1.50;1.40;;;13.70;92.60;;;;;;968743;144;27255;-83
2024/01/05 10:48:09;;;;;;;2.42;1.42;;;13.70;92.50;;;;;;967669;144;27333;-86
2024/01/05 10:50:41;;;;;;;2.08;1.42;;;13.70;92.30;;;;;;966420;144;27294;-86
2024/01/05 10:53:02;;;;;;;1.85;1.30;;;13.70;92.00;;;;;;967184;144;27312;-84
2024/01/05 10:55:29;;;;;;;4.20;1.45;;;13.70;92.00;;;;;;967883;144;27382;-78
2024/01/05 10:57:56;;;;;;;6.00;1.60;;;13.70;91.40;;;;;;968511;144;27370;-78
2024/01/05 11:00:25;;;;;;;1.85;1.20;;;13.70;91.50;;;;;;969379;144;27375;-78
2024/01/05 11:02:51;;;;;;;1.80;1.40;;;13.70;91.50;;;;;;967225;144;27399;-80
2024/01/05 11:05:18;;;;;;;1.75;1.10;;;13.70;91.30;;;;;;965908;144;27374;-78
2024/01/05 11:07:45;;;;;;;1.30;1.20;;;13.70;90.90;;;;;;971748;144;27433;-77
2024/01/05 11:10:32;;;;;;;1.85;1.27;;;13.70;91.10;;;;;;968497;143;27353;-78
2024/01/05 11:13:30;;;;;;;2.67;1.50;;;13.70;91.30;;;;;;968922;144;27286;-79
2024/01/05 11:16:21;;;;;;;1.92;1.15;;;13.70;91.30;;;;;;969885;144;27325;-78
2024/01/05 11:18:50;;;;;;;1.25;1.15;;;13.70;91.40;;;;;;947216;144;27278;-78
2024/01/05 11:21:22;;;;;;;3.00;1.22;;;13.80;91.40;;;;;;967487;144;27421;-78
2024/01/05 11:23:49;;;;;;;2.87;1.22;;;13.80;91.60;;;;;;969907;144;27344;-78
2024/01/05 11:26:31;;;;;;;2.22;1.12;;;13.80;91.30;;;;;;969697;144;27293;-78
2024/01/05 11:28:57;;;;;;;1.47;1.25;;;13.80;91.00;;;;;;973760;143;27370;-82
2024/01/05 11:31:45;;;;;;;1.87;1.45;;;13.80;90.80;;;;;;971718;143;27349;-77
2024/01/05 11:34:36;;;;;;;2.25;1.10;;;13.90;90.70;;;;;;974369;143;27345;-78
2024/01/05 11:37:00;;;;;;;1.70;1.22;;;13.90;90.90;;;;;;954149;145;27263;-77
2024/01/05 11:39:44;;;;;;;1.98;1.30;;;13.90;91.00;;;;;;969193;143;27275;-77
2024/01/05 11:42:29;;;;;;;2.05;1.27;;;13.90;91.00;;;;;;976513;143;27295;-80
2024/01/05 11:44:52;;;;;;;3.12;1.87;;;14.00;91.20;;;;;;969914;144;27347;-78
2024/01/05 11:47:41;;;;;;;2.47;1.20;;;14.10;91.20;;;;;;973233;144;27351;-77
2024/01/05 11:50:26;;;;;;;1.60;0.93;;;14.10;90.50;;;;;;969767;144;27931;-79
2024/01/05 11:53:16;;;;;;;2.27;1.87;;;14.20;90.20;;;;;;973649;144;27354;-77
2024/01/05 11:55:51;;;;;;;2.42;1.37;;;14.20;89.80;;;;;;974416;144;27313;-78
2024/01/05 11:58:18;;;;;;;2.47;1.37;;;14.20;89.60;;;;;;970228;144;27322;-77
2024/01/05 12:00:46;;;;;;;4.15;1.50;;;14.20;89.20;;;;;;970339;144;28347;-77
2024/01/05 12:03:11;;;;;;;2.52;1.42;;;14.10;88.20;;;;;;972674;144;27274;-77
2024/01/05 12:05:40;;;;;;;2.52;1.45;;;14.20;88.20;;;;;;974986;144;27248;-78
2024/01/05 12:08:06;;;;;;;2.90;1.17;;;14.10;87.70;;;;;;970998;144;27444;-78
2024/01/05 12:10:33;;;;;;;2.65;1.30;;;14.10;87.50;;;;;;966536;144;27383;-77
2024/01/05 12:13:00;;;;;;;2.17;1.32;;;14.10;87.60;;;;;;975113;144;27231;-78
2024/01/05 12:15:26;;;;;;;2.42;1.30;;;14.10;86.90;;;;;;970750;144;27263;-81
2024/01/05 12:18:07;;;;;;;3.37;1.70;;;14.10;86.40;;;;;;971024;144;27334;-77
2024/01/05 12:20:32;;;;;;;2.62;1.47;;;14.00;86.00;;;;;;974656;144;28541;-77
2024/01/05 12:22:58;;;;;;;2.42;1.57;;;14.00;86.30;;;;;;974422;144;27274;-77
2024/01/05 12:25:25;;;;;;;2.92;1.47;;;13.90;86.20;;;;;;973455;143;27267;-78
2024/01/05 12:27:51;;;;;;;2.35;1.67;;;13.90;86.40;;;;;;969957;143;27400;-77
2024/01/05 12:30:18;;;;;;;2.80;1.72;;;14.00;86.80;;;;;;971154;143;27310;-77
2024/01/05 12:32:44;;;;;;;1.65;1.55;;;14.00;87.20;;;;;;968588;143;27360;-78
2024/01/05 12:35:11;;;;;;;3.33;1.57;;;14.00;87.40;;;;;;970165;144;27409;-77
2024/01/05 12:37:38;;;;;;;1.90;1.80;;;14.00;87.10;;;;;;971340;143;27239;-80
2024/01/05 12:40:10;;;;;;;3.20;1.60;;;14.10;86.90;;;;;;970706;143;27325;-77
2024/01/05 12:42:37;;;;;;;2.83;1.65;;;14.10;86.80;;;;;;970760;143;27236;-77
2024/01/05 12:45:03;;;;;;;2.40;1.25;;;14.20;86.50;;;;;;969813;143;27365;-76
2024/01/05 12:47:30;;;;;;;1.45;1.35;;;14.10;85.70;;;;;;967970;143;27268;-79
2024/01/05 12:49:57;;;;;;;1.77;1.40;;;14.20;85.20;;;;;;968704;143;27362;-78
2024/01/05 12:52:38;;;;;;;2.17;1.45;;;14.20;83.60;;;;;;969634;143;27357;-77
2024/01/05 12:55:05;;;;;;;2.05;1.45;;;14.10;83.80;;;;;;947698;143;27295;-78